createdAt,value
2023-05-15T00:02:20.418Z,66.44
2023-05-15T00:04:51.919Z,66.71
2023-05-15T00:07:23.235Z,66.71
2023-05-15T00:09:54.594Z,66.76
2023-05-15T00:12:26.129Z,66.61
2023-05-15T00:14:57.452Z,66.66
2023-05-15T00:17:28.750Z,66.77
2023-05-15T00:20:00.390Z,67.12
2023-05-15T00:22:31.739Z,67.41
2023-05-15T00:25:03.315Z,67.48
2023-05-15T00:27:34.656Z,67.64
2023-05-15T00:30:06.819Z,67.59
2023-05-15T00:32:38.119Z,67.71
2023-05-15T00:35:09.554Z,67.55
2023-05-15T00:37:40.916Z,68.25
2023-05-15T00:40:18.622Z,68.06
2023-05-15T00:42:51.002Z,68.29
2023-05-15T00:45:24.678Z,68.59
2023-05-15T00:47:57.952Z,68.50
2023-05-15T00:50:30.218Z,68.78
2023-05-15T00:53:03.081Z,68.76
2023-05-15T00:55:35.896Z,68.82
2023-05-15T00:58:07.928Z,68.90
2023-05-15T01:00:39.932Z,69.22
2023-05-15T01:03:11.446Z,69.25
2023-05-15T01:05:43.741Z,68.99
2023-05-15T01:08:32.928Z,69.03
2023-05-15T01:11:05.772Z,69.44
2023-05-15T01:13:37.147Z,69.57
2023-05-15T01:16:10.155Z,69.38
2023-05-15T01:18:41.749Z,69.91
2023-05-15T01:21:34.649Z,70.47
2023-05-15T01:24:20.493Z,69.62
2023-05-15T01:27:15.661Z,70.11
2023-05-15T01:29:55.554Z,70.24
2023-05-15T01:32:38.081Z,70.08
2023-05-15T01:35:28.691Z,70.73
2023-05-15T01:38:13.077Z,69.88
2023-05-15T01:40:47.744Z,69.77
2023-05-15T01:43:22.554Z,70.40
2023-05-15T01:45:55.859Z,70.04
2023-05-15T01:48:28.465Z,70.62
2023-05-15T01:51:03.650Z,70.56
2023-05-15T01:53:35.951Z,70.30
2023-05-15T01:56:09.582Z,70.36
2023-05-15T01:58:42.551Z,70.98
2023-05-15T02:01:14.544Z,70.89
2023-05-15T02:03:47.014Z,70.79
2023-05-15T02:06:19.266Z,70.45
2023-05-15T02:08:51.790Z,70.70
2023-05-15T02:11:23.370Z,71.07
2023-05-15T02:13:59.173Z,70.62
2023-05-15T02:16:30.642Z,70.43
2023-05-15T02:19:02.061Z,71.32
2023-05-15T02:21:34.191Z,70.63
2023-05-15T02:24:05.677Z,71.11
2023-05-15T02:27:20.500Z,71.39
2023-05-15T02:30:06.032Z,71.22
2023-05-15T02:32:49.713Z,71.52
2023-05-15T02:35:43.712Z,71.61
2023-05-15T02:38:18.791Z,71.25
2023-05-15T02:40:51.206Z,71.25
2023-05-15T02:43:23.128Z,71.29
2023-05-15T02:45:56.951Z,71.82
2023-05-15T02:48:29.337Z,71.44
2023-05-15T02:51:01.224Z,71.98
2023-05-15T02:53:33.362Z,72.08
2023-05-15T02:56:05.012Z,72.31
2023-05-15T02:58:37.678Z,71.86
2023-05-15T03:01:09.043Z,72.44
2023-05-15T03:03:40.336Z,72.10
2023-05-15T03:06:11.633Z,72.10
2023-05-15T03:08:42.914Z,72.57
2023-05-15T03:11:14.401Z,73.20
2023-05-15T03:13:45.736Z,72.56
2023-05-15T03:16:17.005Z,72.66
2023-05-15T03:18:48.281Z,72.67
2023-05-15T03:21:20.082Z,72.84
2023-05-15T03:23:51.426Z,73.40
2023-05-15T03:26:23.078Z,72.75
2023-05-15T03:28:55.194Z,72.91
2023-05-15T03:31:26.527Z,73.20
2023-05-15T03:33:57.804Z,73.43
2023-05-15T03:36:29.073Z,73.19
2023-05-15T03:39:00.494Z,72.90
2023-05-15T03:41:31.798Z,72.76
2023-05-15T03:44:03.117Z,73.25
2023-05-15T03:46:34.421Z,72.70
2023-05-15T03:49:05.703Z,72.77
2023-05-15T03:51:37.084Z,73.49
2023-05-15T03:54:08.623Z,73.15
2023-05-15T03:56:40.026Z,73.33
2023-05-15T03:59:12.539Z,73.44
2023-05-15T04:01:59.358Z,73.43
2023-05-15T04:04:34.684Z,73.03
2023-05-15T04:07:06.149Z,73.35
2023-05-15T04:09:37.514Z,73.27
2023-05-15T04:12:09.053Z,73.55
2023-05-15T04:14:40.518Z,73.07
2023-05-15T04:17:11.827Z,72.97
2023-05-15T04:19:43.222Z,73.53
2023-05-15T04:22:14.555Z,73.52
2023-05-15T04:24:45.823Z,72.91
2023-05-15T04:27:17.328Z,73.24
2023-05-15T04:29:48.621Z,73.33
2023-05-15T04:32:19.964Z,73.27
2023-05-15T04:34:51.220Z,72.71
2023-05-15T04:37:22.559Z,72.97
2023-05-15T04:39:54.316Z,73.10
2023-05-15T04:42:26.551Z,72.76
2023-05-15T04:44:57.912Z,72.93
2023-05-15T04:47:29.293Z,72.68
2023-05-15T04:50:00.712Z,72.78
2023-05-15T04:52:32.314Z,72.64
2023-05-15T04:55:04.165Z,72.66
2023-05-15T04:57:35.689Z,72.66
2023-05-15T05:00:11.880Z,72.67
2023-05-15T05:02:43.994Z,72.33
2023-05-15T05:05:15.436Z,71.93
2023-05-15T05:07:46.705Z,72.12
2023-05-15T05:10:18.130Z,71.94
2023-05-15T05:12:49.454Z,72.12
2023-05-15T05:15:21.134Z,72.01
2023-05-15T05:17:53.106Z,72.06
2023-05-15T05:20:24.430Z,72.26
2023-05-15T05:22:55.902Z,72.14
2023-05-15T05:25:27.363Z,72.16
2023-05-15T05:27:58.751Z,71.87
2023-05-15T05:30:30.118Z,71.92
2023-05-15T05:33:01.500Z,71.71
2023-05-15T05:35:32.790Z,71.50
2023-05-15T05:38:04.317Z,71.48
2023-05-15T05:40:35.780Z,71.51
2023-05-15T05:43:07.189Z,71.21
2023-05-15T05:45:38.615Z,71.55
2023-05-15T05:48:09.988Z,71.06
2023-05-15T05:50:42.222Z,71.21
2023-05-15T05:53:13.589Z,70.97
2023-05-15T05:55:45.102Z,70.78
2023-05-15T05:58:24.837Z,69.99
2023-05-15T06:00:57.314Z,69.61
2023-05-15T06:03:28.812Z,69.48
2023-05-15T06:06:00.729Z,68.90
2023-05-15T06:08:34.988Z,68.92
2023-05-15T06:11:13.927Z,68.71
2023-05-15T06:13:51.157Z,65.71
2023-05-15T06:16:22.618Z,62.32
2023-05-15T06:18:54.084Z,59.87
2023-05-15T06:21:27.309Z,57.70
2023-05-15T06:23:58.637Z,56.61
2023-05-15T06:26:36.944Z,55.44
2023-05-15T06:29:08.360Z,55.42
2023-05-15T06:31:39.849Z,55.92
2023-05-15T06:34:13.310Z,56.04
2023-05-15T06:36:44.931Z,56.57
2023-05-15T06:39:16.251Z,56.43
2023-05-15T06:41:47.607Z,56.10
2023-05-15T06:44:18.942Z,56.44
2023-05-15T06:46:50.438Z,56.75
2023-05-15T06:49:22.300Z,57.44
2023-05-15T06:51:54.977Z,57.06
2023-05-15T06:54:26.309Z,57.53
2023-05-15T06:56:57.681Z,57.10
2023-05-15T06:59:29.090Z,57.08
2023-05-15T07:02:00.474Z,56.93
2023-05-15T07:04:31.956Z,56.35
2023-05-15T07:07:03.472Z,55.45
2023-05-15T07:09:35.448Z,55.73
2023-05-15T07:12:07.151Z,55.14
2023-05-15T07:14:38.595Z,54.75
2023-05-15T07:17:10.045Z,54.61
2023-05-15T07:19:41.475Z,54.47
2023-05-15T07:22:12.820Z,53.85
2023-05-15T07:24:44.240Z,53.69
2023-05-15T07:27:15.565Z,53.11
2023-05-15T07:29:46.948Z,52.61
2023-05-15T07:32:18.301Z,52.87
2023-05-15T07:34:49.949Z,52.21
2023-05-15T07:37:21.810Z,51.29
2023-05-15T07:39:53.268Z,51.20
2023-05-15T07:42:25.573Z,50.21
2023-05-15T07:44:57.073Z,50.25
2023-05-15T07:47:28.626Z,49.88
2023-05-15T07:50:00.265Z,49.46
2023-05-15T07:52:31.620Z,48.91
2023-05-15T07:55:03.946Z,48.54
2023-05-15T07:57:35.642Z,48.24
2023-05-15T08:00:12.499Z,47.51
2023-05-15T08:02:46.211Z,46.99
2023-05-15T08:05:17.889Z,46.75
2023-05-15T08:07:49.214Z,46.23
2023-05-15T08:10:20.626Z,46.34
2023-05-15T08:12:51.984Z,46.09
2023-05-15T08:15:25.281Z,45.97
2023-05-15T08:17:56.932Z,45.50
2023-05-15T08:20:28.312Z,45.48
2023-05-15T08:22:59.654Z,44.74
2023-05-15T08:25:31.200Z,44.60
2023-05-15T08:28:04.047Z,44.42
2023-05-15T08:30:36.081Z,44.26
2023-05-15T08:33:07.553Z,43.91
2023-05-15T08:35:38.982Z,43.91
2023-05-15T08:38:10.386Z,43.20
2023-05-15T08:40:46.561Z,43.03
2023-05-15T08:43:18.318Z,43.00
2023-05-15T08:45:50.043Z,42.77
2023-05-15T08:48:25.943Z,42.35
2023-05-15T08:50:58.548Z,41.84
2023-05-15T08:53:30.801Z,42.06
2023-05-15T08:56:02.711Z,41.71
2023-05-15T08:58:34.248Z,41.43
2023-05-15T09:01:06.311Z,41.11
2023-05-15T09:03:37.805Z,40.95
2023-05-15T09:06:10.115Z,40.72
2023-05-15T09:08:43.160Z,40.97
2023-05-15T09:11:16.144Z,40.54
2023-05-15T09:13:47.504Z,40.39
2023-05-15T09:16:21.101Z,40.72
2023-05-15T09:18:53.782Z,40.37
2023-05-15T09:21:34.328Z,40.51
2023-05-15T09:24:28.165Z,40.08
2023-05-15T09:27:07.506Z,39.66
2023-05-15T09:29:39.863Z,40.47
2023-05-15T09:32:14.122Z,39.78
2023-05-15T09:34:46.150Z,39.45
2023-05-15T09:37:32.545Z,39.52
2023-05-15T09:40:11.097Z,38.96
2023-05-15T09:42:42.540Z,39.29
2023-05-15T09:45:18.390Z,39.10
2023-05-15T09:47:49.948Z,39.21
2023-05-15T09:50:25.606Z,38.31
2023-05-15T09:52:59.346Z,37.94
2023-05-15T09:55:34.782Z,38.30
2023-05-15T09:58:11.993Z,37.58
2023-05-15T10:00:48.568Z,37.48
2023-05-15T10:03:21.280Z,37.35
2023-05-15T10:05:59.911Z,36.67
2023-05-15T10:08:31.313Z,37.39
2023-05-15T10:11:04.447Z,37.70
2023-05-15T10:13:36.896Z,37.69
2023-05-15T10:16:08.457Z,37.12
2023-05-15T10:18:41.467Z,37.64
2023-05-15T10:21:13.674Z,36.80
2023-05-15T10:23:46.584Z,36.67
2023-05-15T10:26:26.940Z,36.46
2023-05-15T10:29:00.976Z,36.60
2023-05-15T10:31:33.680Z,36.52
2023-05-15T10:34:05.851Z,36.17
2023-05-15T10:36:38.451Z,35.88
2023-05-15T10:39:10.202Z,36.49
2023-05-15T10:41:42.720Z,36.01
2023-05-15T10:44:14.664Z,36.09
2023-05-15T10:46:46.962Z,35.66
2023-05-15T10:49:18.432Z,35.37
2023-05-15T10:51:49.972Z,35.35
2023-05-15T10:54:22.503Z,35.36
2023-05-15T10:56:55.991Z,35.25
2023-05-15T10:59:32.696Z,35.57
2023-05-15T11:02:39.381Z,34.94
2023-05-15T11:05:12.119Z,35.29
2023-05-15T11:07:43.468Z,35.21
2023-05-15T11:10:29.801Z,34.54
2023-05-15T11:13:02.250Z,34.99
2023-05-15T11:15:44.626Z,34.90
2023-05-15T11:18:16.445Z,34.25
2023-05-15T11:20:51.898Z,34.13
2023-05-15T11:23:25.426Z,34.07
2023-05-15T11:25:57.456Z,34.39
2023-05-15T11:28:30.761Z,34.13
2023-05-15T11:31:06.536Z,34.70
2023-05-15T11:33:39.129Z,34.06
2023-05-15T11:36:15.706Z,34.52
2023-05-15T11:38:50.815Z,33.76
2023-05-15T11:41:24.817Z,33.72
2023-05-15T11:43:57.075Z,33.61
2023-05-15T11:46:29.347Z,33.55
2023-05-15T11:49:01.312Z,33.44
2023-05-15T11:51:33.475Z,33.93
2023-05-15T11:54:06.950Z,33.54
2023-05-15T11:56:46.895Z,33.20
2023-05-15T11:59:21.040Z,32.99
2023-05-15T12:01:52.547Z,33.46
2023-05-15T12:04:23.970Z,33.01
2023-05-15T12:06:55.400Z,32.75
2023-05-15T12:09:28.222Z,32.71
2023-05-15T12:11:59.659Z,31.91
2023-05-15T12:14:31.551Z,31.92
2023-05-15T12:17:04.359Z,31.97
2023-05-15T12:19:37.969Z,31.62
2023-05-15T12:22:09.502Z,31.61
2023-05-15T12:24:41.652Z,31.79
2023-05-15T12:27:13.586Z,31.87
2023-05-15T12:29:45.721Z,31.58
2023-05-15T12:32:17.509Z,30.81
2023-05-15T12:34:49.355Z,29.99
2023-05-15T12:37:21.324Z,30.06
2023-05-15T12:39:59.903Z,29.82
2023-05-15T12:42:31.349Z,29.98
2023-05-15T12:45:02.808Z,29.96
2023-05-15T12:47:34.162Z,30.00
2023-05-15T12:50:18.542Z,30.19
2023-05-15T12:52:49.848Z,31.52
2023-05-15T12:55:28.923Z,34.25
2023-05-15T12:58:06.949Z,34.84
2023-05-15T13:00:40.945Z,35.38
2023-05-15T13:03:13.545Z,35.08
2023-05-15T13:05:45.669Z,35.04
2023-05-15T13:08:18.430Z,34.51
2023-05-15T13:10:56.882Z,33.96
2023-05-15T13:13:43.052Z,32.97
2023-05-15T13:16:22.495Z,33.27
2023-05-15T13:18:53.992Z,33.18
2023-05-15T13:21:25.974Z,33.31
2023-05-15T13:23:57.408Z,33.39
2023-05-15T13:26:28.688Z,33.56
2023-05-15T13:29:01.469Z,33.71
2023-05-15T13:31:32.905Z,34.31
2023-05-15T13:34:04.313Z,34.34
2023-05-15T13:36:38.620Z,35.07
2023-05-15T13:39:10.164Z,35.56
2023-05-15T13:41:41.524Z,35.94
2023-05-15T13:44:12.936Z,36.26
2023-05-15T13:46:44.343Z,36.49
2023-05-15T13:49:15.734Z,37.54
2023-05-15T13:51:47.025Z,38.20
2023-05-15T13:54:18.389Z,38.96
2023-05-15T13:56:49.739Z,39.37
2023-05-15T13:59:21.152Z,40.21
2023-05-15T14:01:52.565Z,41.23
2023-05-15T14:04:23.932Z,41.90
2023-05-15T14:06:55.378Z,41.78
2023-05-15T14:09:26.753Z,42.61
2023-05-15T14:11:58.174Z,42.28
2023-05-15T14:14:29.476Z,42.89
2023-05-15T14:17:01.042Z,42.95
2023-05-15T14:19:32.539Z,43.73
2023-05-15T14:22:03.982Z,43.95
2023-05-15T14:24:35.306Z,44.45
2023-05-15T14:27:06.758Z,44.82
2023-05-15T14:29:39.713Z,45.22
2023-05-15T14:32:11.148Z,45.76
2023-05-15T14:34:42.522Z,46.29
2023-05-15T14:37:14.222Z,46.29
2023-05-15T14:39:45.594Z,46.18
2023-05-15T14:42:17.320Z,46.89
2023-05-15T14:44:49.306Z,46.67
2023-05-15T14:47:20.789Z,47.26
2023-05-15T14:49:52.240Z,46.87
2023-05-15T14:52:23.521Z,46.98
2023-05-15T14:55:08.066Z,47.54
2023-05-15T14:57:40.855Z,47.51
2023-05-15T15:00:13.289Z,47.65
2023-05-15T15:02:46.211Z,48.30
2023-05-15T15:05:18.567Z,48.50
2023-05-15T15:08:00.772Z,49.08
2023-05-15T15:10:33.883Z,48.93
2023-05-15T15:13:06.329Z,49.46
2023-05-15T15:15:37.701Z,49.34
2023-05-15T15:18:09.114Z,49.42
2023-05-15T15:20:41.435Z,48.38
2023-05-15T15:23:12.794Z,48.87
2023-05-15T15:25:44.134Z,48.92
2023-05-15T15:28:15.546Z,49.28
2023-05-15T15:30:46.897Z,49.61
2023-05-15T15:33:18.265Z,49.13
2023-05-15T15:35:49.685Z,49.17
2023-05-15T15:38:21.281Z,49.36
2023-05-15T15:40:52.570Z,48.87
2023-05-15T15:43:23.832Z,48.96
2023-05-15T15:45:55.254Z,49.44
2023-05-15T15:48:26.694Z,49.20
2023-05-15T15:50:58.176Z,48.77
2023-05-15T15:53:33.937Z,48.43
2023-05-15T15:56:06.519Z,48.68
2023-05-15T15:58:37.783Z,49.12
2023-05-15T16:01:09.225Z,48.50
2023-05-15T16:03:40.624Z,48.42
2023-05-15T16:06:12.086Z,48.43
2023-05-15T16:08:43.358Z,48.35
2023-05-15T16:11:16.317Z,48.71
2023-05-15T16:13:47.623Z,48.55
2023-05-15T16:16:18.990Z,48.97
2023-05-15T16:18:50.363Z,49.78
2023-05-15T16:21:21.661Z,49.93
2023-05-15T16:23:52.964Z,50.29
2023-05-15T16:26:24.248Z,50.56
2023-05-15T16:28:56.890Z,50.95
2023-05-15T16:31:28.365Z,50.96
2023-05-15T16:34:02.834Z,51.12
2023-05-15T16:36:35.484Z,51.43
2023-05-15T16:39:07.838Z,51.52
2023-05-15T16:41:39.103Z,51.76
2023-05-15T16:44:13.066Z,51.84
2023-05-15T16:46:44.591Z,52.05
2023-05-15T16:49:15.950Z,52.46
2023-05-15T16:51:47.221Z,52.76
2023-05-15T16:54:19.124Z,52.47
2023-05-15T16:56:50.447Z,52.94
2023-05-15T16:59:21.722Z,53.00
2023-05-15T17:01:53.312Z,52.94
2023-05-15T17:04:24.735Z,52.90
2023-05-15T17:06:56.002Z,52.86
2023-05-15T17:09:27.257Z,52.95
2023-05-15T17:11:59.628Z,52.89
2023-05-15T17:14:31.008Z,52.68
2023-05-15T17:17:02.392Z,53.04
2023-05-15T17:19:34.609Z,52.88
2023-05-15T17:22:05.980Z,53.14
2023-05-15T17:24:50.013Z,53.17
2023-05-15T17:27:22.823Z,53.44
2023-05-15T17:29:54.322Z,53.62
2023-05-15T17:32:25.812Z,53.57
2023-05-15T17:34:57.199Z,53.72
2023-05-15T17:37:28.608Z,53.81
2023-05-15T17:40:00.267Z,54.19
2023-05-15T17:42:31.788Z,54.01
2023-05-15T17:45:04.071Z,54.60
2023-05-15T17:47:35.411Z,54.81
2023-05-15T17:50:07.489Z,54.79
2023-05-15T17:52:38.949Z,55.12
2023-05-15T17:55:10.539Z,55.93
2023-05-15T17:57:41.944Z,55.77
2023-05-15T18:00:13.794Z,56.19
2023-05-15T18:02:45.189Z,56.25
2023-05-15T18:05:17.170Z,57.09
2023-05-15T18:07:48.481Z,57.53
2023-05-15T18:10:19.855Z,58.50
2023-05-15T18:12:51.320Z,58.65
2023-05-15T18:15:22.733Z,58.50
2023-05-15T18:17:54.150Z,59.33
2023-05-15T18:20:25.533Z,59.87
2023-05-15T18:22:57.238Z,60.19
2023-05-15T18:25:28.774Z,60.62
2023-05-15T18:28:00.216Z,61.03
2023-05-15T18:30:31.710Z,61.30
2023-05-15T18:33:03.234Z,61.69
2023-05-15T18:35:35.111Z,61.96
2023-05-15T18:38:06.887Z,62.15
2023-05-15T18:40:38.200Z,61.95
2023-05-15T18:43:09.557Z,62.20
2023-05-15T18:45:41.281Z,62.65
2023-05-15T18:48:12.643Z,62.36
2023-05-15T18:50:44.104Z,62.67
2023-05-15T18:53:15.547Z,62.88
2023-05-15T18:55:47.072Z,63.50
2023-05-15T18:58:18.372Z,64.28
2023-05-15T19:00:49.767Z,63.67
2023-05-15T19:03:21.141Z,63.98
2023-05-15T19:05:52.668Z,63.96
2023-05-15T19:08:24.035Z,64.26
2023-05-15T19:10:55.433Z,65.03
2023-05-15T19:13:29.733Z,64.47
2023-05-15T19:16:01.125Z,64.80
2023-05-15T19:18:32.446Z,65.36
2023-05-15T19:21:04.781Z,65.54
2023-05-15T19:23:36.149Z,65.32
2023-05-15T19:26:07.464Z,65.87
2023-05-15T19:28:38.806Z,65.88
2023-05-15T19:31:20.503Z,66.80
2023-05-15T19:34:01.532Z,66.79
2023-05-15T19:36:32.982Z,66.40
2023-05-15T19:39:04.401Z,67.17
2023-05-15T19:41:35.815Z,66.56
2023-05-15T19:44:08.177Z,66.35
2023-05-15T19:46:39.866Z,66.45
2023-05-15T19:49:11.449Z,66.73
2023-05-15T19:51:42.859Z,66.58
2023-05-15T19:54:15.845Z,66.51
2023-05-15T19:56:47.117Z,66.47
2023-05-15T19:59:18.379Z,67.69
2023-05-15T20:01:49.685Z,67.12
2023-05-15T20:04:21.494Z,67.32
2023-05-15T20:06:53.632Z,67.44
2023-05-15T20:09:29.564Z,67.62
2023-05-15T20:12:03.168Z,68.59
2023-05-15T20:14:34.527Z,67.96
2023-05-15T20:17:06.086Z,67.95
2023-05-15T20:19:37.375Z,68.27
2023-05-15T20:22:08.737Z,68.01
2023-05-15T20:24:40.094Z,67.88
2023-05-15T20:27:12.010Z,68.05
2023-05-15T20:29:43.413Z,68.81
2023-05-15T20:32:14.888Z,68.05
2023-05-15T20:34:46.588Z,68.54
2023-05-15T20:37:17.988Z,68.50
2023-05-15T20:39:49.280Z,68.70
2023-05-15T20:42:21.647Z,68.83
2023-05-15T20:44:53.000Z,68.54
2023-05-15T20:47:24.399Z,68.95
2023-05-15T20:49:55.702Z,68.97
2023-05-15T20:52:27.050Z,68.93
2023-05-15T20:54:58.330Z,68.84
2023-05-15T20:57:29.823Z,68.91
2023-05-15T21:00:01.085Z,69.58
2023-05-15T21:02:32.470Z,69.39
2023-05-15T21:05:04.302Z,69.23
2023-05-15T21:07:36.050Z,69.98
2023-05-15T21:10:07.831Z,69.58
2023-05-15T21:12:39.768Z,69.90
2023-05-15T21:15:11.188Z,70.06
2023-05-15T21:17:42.494Z,69.87
2023-05-15T21:20:13.786Z,69.75
2023-05-15T21:22:45.051Z,69.85
2023-05-15T21:25:18.974Z,69.61
2023-05-15T21:27:50.230Z,69.28
2023-05-15T21:30:21.670Z,69.84
2023-05-15T21:32:53.070Z,70.15
2023-05-15T21:35:25.383Z,69.48
2023-05-15T21:37:56.765Z,69.62
2023-05-15T21:40:29.241Z,69.71
2023-05-15T21:43:00.655Z,69.68
2023-05-15T21:45:31.965Z,70.04
2023-05-15T21:48:03.742Z,69.96
2023-05-15T21:50:35.043Z,70.14
2023-05-15T21:53:06.452Z,69.96
2023-05-15T21:55:37.752Z,70.00
2023-05-15T21:58:10.190Z,69.60
2023-05-15T22:00:41.551Z,69.64
2023-05-15T22:03:13.058Z,69.92
2023-05-15T22:05:44.763Z,69.89
2023-05-15T22:08:16.576Z,69.87
2023-05-15T22:10:48.513Z,70.03
2023-05-15T22:13:19.791Z,70.16
2023-05-15T22:15:51.158Z,69.73
2023-05-15T22:18:23.108Z,70.26
2023-05-15T22:20:55.213Z,70.43
2023-05-15T22:23:26.681Z,70.47
2023-05-15T22:25:58.014Z,70.28
2023-05-15T22:28:29.336Z,70.40
2023-05-15T22:31:00.997Z,70.53
2023-05-15T22:33:32.342Z,70.55
2023-05-15T22:36:04.467Z,70.35
2023-05-15T22:38:35.837Z,70.87
2023-05-15T22:41:08.670Z,70.96
2023-05-15T22:43:40.016Z,70.79
2023-05-15T22:46:11.658Z,70.63
2023-05-15T22:48:42.995Z,70.57
2023-05-15T22:51:16.115Z,70.68
2023-05-15T22:53:47.460Z,70.63
2023-05-15T22:56:18.782Z,70.53
2023-05-15T22:58:50.230Z,70.76
2023-05-15T23:01:21.814Z,70.91
2023-05-15T23:03:53.167Z,71.00
2023-05-15T23:06:24.598Z,70.85
2023-05-15T23:08:55.881Z,71.30
2023-05-15T23:11:28.169Z,71.12
2023-05-15T23:13:59.506Z,71.22
2023-05-15T23:16:31.662Z,70.96
2023-05-15T23:19:03.123Z,71.38
2023-05-15T23:21:34.617Z,71.07
2023-05-15T23:24:06.225Z,71.57
2023-05-15T23:26:37.959Z,71.47
2023-05-15T23:29:09.409Z,71.66
2023-05-15T23:31:42.798Z,71.46
2023-05-15T23:34:14.171Z,71.61
2023-05-15T23:36:45.609Z,71.74
2023-05-15T23:39:17.008Z,71.49
2023-05-15T23:41:48.367Z,71.84
2023-05-15T23:44:19.659Z,71.57
2023-05-15T23:46:50.942Z,71.99
2023-05-15T23:49:22.235Z,71.88
2023-05-15T23:51:53.582Z,72.03
2023-05-15T23:54:24.910Z,72.17
2023-05-15T23:56:56.460Z,71.75
2023-05-15T23:59:27.780Z,71.80
